createdAt,value
2024-03-22T20:49:43.620Z,8.33
2024-03-22T20:50:19.825Z,8.35
2024-03-22T20:50:55.520Z,8.38
2024-03-22T20:51:30.440Z,8.42
2024-03-22T20:52:05.139Z,8.43
2024-03-22T20:52:40.436Z,8.44
2024-03-22T20:53:15.421Z,8.46
2024-03-22T20:53:50.258Z,8.48
2024-03-22T20:54:25.024Z,8.45
2024-03-22T20:54:59.846Z,8.43
2024-03-22T20:55:34.939Z,8.44
2024-03-22T20:56:09.791Z,8.42
2024-03-22T20:56:45.375Z,8.43
2024-03-22T20:57:20.903Z,8.46
2024-03-22T20:57:55.907Z,8.46
2024-03-22T20:58:30.677Z,8.46
2024-03-22T20:59:05.599Z,8.42
2024-03-22T20:59:41.364Z,8.40
2024-03-22T21:00:16.606Z,8.41
2024-03-22T21:00:54.265Z,8.43
2024-03-22T21:01:28.913Z,8.45
2024-03-22T21:02:03.776Z,8.49
2024-03-22T21:02:38.664Z,8.51
2024-03-22T21:03:14.961Z,8.53
2024-03-22T21:03:48.585Z,8.58
2024-03-22T21:04:20.989Z,8.57
2024-03-22T21:04:54.113Z,8.53
2024-03-22T21:05:26.441Z,8.50
2024-03-22T21:05:58.744Z,8.44
2024-03-22T21:06:31.241Z,8.42
2024-03-22T21:07:03.339Z,8.36
2024-03-22T21:07:35.934Z,8.37
2024-03-22T21:08:08.407Z,8.36
2024-03-22T21:08:40.882Z,8.35
2024-03-22T21:09:13.257Z,8.34
2024-03-22T21:09:45.666Z,8.33
2024-03-22T21:10:18.527Z,8.31
2024-03-22T21:10:50.635Z,8.32
2024-03-22T21:11:22.956Z,8.32
2024-03-22T21:11:55.027Z,8.30
2024-03-22T21:12:27.104Z,8.28
2024-03-22T21:12:59.322Z,8.24
2024-03-22T21:13:31.307Z,8.21
2024-03-22T21:14:03.403Z,8.20
2024-03-22T21:14:35.359Z,8.18
2024-03-22T21:15:07.428Z,8.17
2024-03-22T21:15:39.478Z,8.18
2024-03-22T21:16:11.469Z,8.23
2024-03-22T21:16:43.715Z,8.25
2024-03-22T21:17:16.300Z,8.25
2024-03-22T21:17:48.601Z,8.24
2024-03-22T21:18:20.766Z,8.23
2024-03-22T21:18:55.823Z,8.19
2024-03-22T21:19:30.634Z,8.25
2024-03-22T21:20:07.350Z,8.19
2024-03-22T21:20:42.817Z,8.18
2024-03-22T21:21:18.299Z,8.18
2024-03-22T21:21:52.402Z,8.15
2024-03-22T21:22:24.486Z,8.13
2024-03-22T21:22:56.951Z,8.14
2024-03-22T21:23:28.971Z,8.15
2024-03-22T21:24:00.927Z,8.11
2024-03-22T21:24:32.944Z,8.08
2024-03-22T21:25:05.206Z,8.08
2024-03-22T21:25:37.330Z,8.06
2024-03-22T21:26:09.429Z,8.07
2024-03-22T21:26:41.395Z,8.01
2024-03-22T21:27:13.913Z,8.00
2024-03-22T21:27:46.028Z,8.00
2024-03-22T21:28:18.112Z,8.00
2024-03-22T21:28:57.999Z,8.01
2024-03-22T21:29:31.232Z,7.99
2024-03-22T21:30:03.237Z,7.98
2024-03-22T21:30:35.195Z,7.96
2024-03-22T21:31:07.108Z,7.98
2024-03-22T21:31:39.137Z,7.99
2024-03-22T21:32:11.132Z,7.97
2024-03-22T21:32:43.246Z,7.97
2024-03-22T21:33:15.565Z,7.95
2024-03-22T21:33:47.639Z,7.98
2024-03-22T21:34:19.732Z,7.98
2024-03-22T21:34:51.782Z,7.97
2024-03-22T21:35:23.856Z,7.93
2024-03-22T21:35:56.000Z,7.93
2024-03-22T21:36:27.981Z,7.88
2024-03-22T21:37:02.727Z,7.86
2024-03-22T21:37:37.416Z,7.84
2024-03-22T21:38:12.131Z,7.84
2024-03-22T21:38:47.046Z,7.81
2024-03-22T21:39:21.835Z,7.76
2024-03-22T21:39:56.593Z,7.71
2024-03-22T21:40:31.392Z,7.70
2024-03-22T21:41:06.118Z,7.67
2024-03-22T21:41:40.878Z,7.64
2024-03-22T21:42:15.680Z,7.60
2024-03-22T21:42:50.368Z,7.55
2024-03-22T21:43:25.135Z,7.55
2024-03-22T21:43:59.863Z,7.50
2024-03-22T21:44:34.601Z,7.46
2024-03-22T21:45:09.646Z,7.42
2024-03-22T21:45:44.492Z,7.37
2024-03-22T21:46:19.215Z,7.36
2024-03-22T21:46:54.943Z,7.35
2024-03-22T21:47:29.733Z,7.33
2024-03-22T21:48:04.551Z,7.35
2024-03-22T21:48:39.452Z,7.37
2024-03-22T21:49:14.302Z,7.37
2024-03-22T21:49:49.104Z,7.41
2024-03-22T21:50:23.964Z,7.39
2024-03-22T21:50:58.653Z,7.42
2024-03-22T21:51:33.396Z,7.37
2024-03-22T21:52:08.251Z,7.33
2024-03-22T21:52:43.076Z,7.31
2024-03-22T21:53:17.808Z,7.30
2024-03-22T21:53:52.568Z,7.28
2024-03-22T21:54:27.338Z,7.24
2024-03-22T21:55:02.070Z,7.27
2024-03-22T21:55:37.168Z,7.27
2024-03-22T21:56:11.855Z,7.25
2024-03-22T21:56:46.800Z,7.24
2024-03-22T21:57:21.529Z,7.25
2024-03-22T21:57:56.588Z,7.27
2024-03-22T21:58:31.290Z,7.24
2024-03-22T21:59:06.138Z,7.23
2024-03-22T21:59:41.022Z,7.21
2024-03-22T22:00:15.773Z,7.21
2024-03-22T22:00:50.711Z,7.19
2024-03-22T22:01:25.398Z,7.18
2024-03-22T22:02:00.362Z,7.18
2024-03-22T22:02:35.386Z,7.19
2024-03-22T22:03:10.160Z,7.18
2024-03-22T22:03:44.948Z,7.18
2024-03-22T22:04:19.706Z,7.16
2024-03-22T22:04:54.538Z,7.18
2024-03-22T22:05:29.304Z,7.16
2024-03-22T22:06:04.069Z,7.13
2024-03-22T22:06:38.846Z,7.13
2024-03-22T22:07:13.893Z,7.13
2024-03-22T22:07:48.712Z,7.13
2024-03-22T22:08:23.452Z,7.13
2024-03-22T22:08:58.502Z,7.08
2024-03-22T22:09:33.178Z,7.05
2024-03-22T22:10:07.870Z,7.09
2024-03-22T22:10:42.811Z,7.08
2024-03-22T22:11:17.581Z,7.06
2024-03-22T22:11:51.011Z,7.05
2024-03-22T22:12:22.969Z,7.09
2024-03-22T22:12:54.986Z,7.06
2024-03-22T22:13:26.972Z,7.05
2024-03-22T22:13:59.090Z,7.05
2024-03-22T22:14:31.070Z,7.05
2024-03-22T22:15:03.124Z,7.04
2024-03-22T22:15:36.103Z,7.05
2024-03-22T22:16:08.187Z,7.09
2024-03-22T22:16:40.318Z,7.07
2024-03-22T22:17:12.304Z,7.06
2024-03-22T22:17:44.270Z,7.10
2024-03-22T22:18:16.271Z,7.09
2024-03-22T22:18:48.244Z,7.09
2024-03-22T22:19:20.298Z,7.07
2024-03-22T22:19:52.307Z,7.07
2024-03-22T22:20:24.290Z,7.02
2024-03-22T22:20:56.317Z,6.97
2024-03-22T22:21:28.279Z,6.96
2024-03-22T22:22:00.259Z,6.96
2024-03-22T22:22:32.272Z,6.92
2024-03-22T22:23:04.397Z,6.92
2024-03-22T22:23:36.424Z,6.90
2024-03-22T22:24:10.416Z,6.89
2024-03-22T22:24:43.981Z,6.85
2024-03-22T22:25:15.979Z,6.81
2024-03-22T22:25:47.954Z,6.72
2024-03-22T22:26:20.004Z,6.67
2024-03-22T22:26:54.899Z,6.60
2024-03-22T22:27:29.684Z,6.51
2024-03-22T22:28:04.466Z,6.43
2024-03-22T22:28:39.272Z,6.38
2024-03-22T22:29:13.963Z,6.33
2024-03-22T22:29:48.683Z,6.32
2024-03-22T22:30:23.403Z,6.30
2024-03-22T22:30:58.134Z,6.27
2024-03-22T22:31:32.881Z,6.24
2024-03-22T22:32:07.693Z,6.24
2024-03-22T22:32:42.659Z,6.18
2024-03-22T22:33:17.454Z,6.17
2024-03-22T22:33:52.189Z,6.16
2024-03-22T22:34:26.918Z,6.16
2024-03-22T22:35:01.659Z,6.14
2024-03-22T22:35:36.443Z,6.16
2024-03-22T22:36:11.176Z,6.14
2024-03-22T22:36:46.324Z,6.14
2024-03-22T22:37:23.714Z,6.17
2024-03-22T22:37:55.873Z,6.17
2024-03-22T22:38:27.955Z,6.18
2024-03-22T22:38:59.940Z,6.21
2024-03-22T22:39:31.934Z,6.24
2024-03-22T22:40:04.100Z,6.25
2024-03-22T22:40:36.118Z,6.25
2024-03-22T22:41:08.153Z,6.23
2024-03-22T22:41:40.194Z,6.22
2024-03-22T22:42:12.162Z,6.24
2024-03-22T22:42:44.174Z,6.25
2024-03-22T22:43:16.543Z,6.27
2024-03-22T22:43:48.565Z,6.32
2024-03-22T22:44:20.537Z,6.31
2024-03-22T22:44:52.725Z,6.32
2024-03-22T22:45:24.712Z,6.32
2024-03-22T22:45:56.730Z,6.32
2024-03-22T22:46:28.733Z,6.31
2024-03-22T22:47:00.775Z,6.28
2024-03-22T22:47:32.851Z,6.29
2024-03-22T22:48:05.048Z,6.27
2024-03-22T22:48:37.061Z,6.28
2024-03-22T22:49:09.139Z,6.29
2024-03-22T22:49:41.144Z,6.28
2024-03-22T22:50:13.170Z,6.28
2024-03-22T22:50:45.247Z,6.27
2024-03-22T22:51:17.241Z,6.30
2024-03-22T22:51:49.256Z,6.35
2024-03-22T22:52:21.234Z,6.36
2024-03-22T22:52:55.972Z,6.38
2024-03-22T22:53:30.736Z,6.36
2024-03-22T22:54:05.533Z,6.42
2024-03-22T22:54:40.486Z,6.44
2024-03-22T22:55:15.252Z,6.42
2024-03-22T22:55:50.030Z,6.43
2024-03-22T22:56:24.840Z,6.43
2024-03-22T22:56:59.590Z,6.43
2024-03-22T22:57:34.304Z,6.44
2024-03-22T22:58:09.160Z,6.35
2024-03-22T22:58:44.008Z,6.26
2024-03-22T22:59:18.674Z,6.21
2024-03-22T22:59:53.406Z,6.17
2024-03-22T23:00:30.410Z,6.17
2024-03-22T23:01:07.273Z,6.21
2024-03-22T23:01:42.007Z,6.19
2024-03-22T23:02:17.100Z,6.20
2024-03-22T23:02:51.832Z,6.19
2024-03-22T23:03:26.495Z,6.18
2024-03-22T23:04:01.645Z,6.18
2024-03-22T23:04:36.368Z,6.12
2024-03-22T23:05:11.066Z,6.11
2024-03-22T23:05:45.969Z,6.09
2024-03-22T23:06:20.750Z,6.09
2024-03-22T23:06:55.640Z,6.11
2024-03-22T23:07:30.354Z,6.07
2024-03-22T23:08:05.307Z,6.02
2024-03-22T23:08:39.979Z,6.01
2024-03-22T23:09:14.745Z,5.98
2024-03-22T23:09:49.444Z,5.94
2024-03-22T23:10:27.059Z,5.89
2024-03-22T23:10:59.153Z,5.85
2024-03-22T23:11:31.321Z,5.82
2024-03-22T23:12:03.364Z,5.80
2024-03-22T23:12:35.616Z,5.81
2024-03-22T23:13:07.654Z,5.81
2024-03-22T23:13:39.703Z,5.80
2024-03-22T23:14:11.805Z,5.79
2024-03-22T23:14:43.905Z,5.78
2024-03-22T23:15:15.936Z,5.78
2024-03-22T23:15:47.904Z,5.80
2024-03-22T23:16:19.841Z,5.74
2024-03-22T23:16:51.898Z,5.81
2024-03-22T23:17:23.869Z,5.84
2024-03-22T23:17:55.827Z,5.89
2024-03-22T23:18:27.792Z,5.90
2024-03-22T23:18:59.719Z,5.90
2024-03-22T23:19:31.715Z,5.92
2024-03-22T23:20:03.673Z,5.95
2024-03-22T23:20:36.002Z,5.98
2024-03-22T23:21:08.188Z,5.99
2024-03-22T23:21:40.265Z,6.02
2024-03-22T23:22:12.323Z,6.05
2024-03-22T23:22:44.589Z,6.03
2024-03-22T23:23:16.599Z,6.03
2024-03-22T23:23:48.517Z,6.04
2024-03-22T23:24:20.548Z,6.06
2024-03-22T23:24:52.506Z,6.06
2024-03-22T23:25:28.749Z,6.06
2024-03-22T23:26:03.512Z,6.04
2024-03-22T23:26:38.238Z,6.00
2024-03-22T23:27:12.957Z,5.96
2024-03-22T23:27:47.736Z,5.92
2024-03-22T23:28:22.529Z,5.90
2024-03-22T23:28:57.410Z,5.87
2024-03-22T23:29:32.091Z,5.84
2024-03-22T23:30:06.759Z,5.82
2024-03-22T23:30:41.718Z,5.80
2024-03-22T23:31:16.589Z,5.79
2024-03-22T23:31:51.283Z,5.77
2024-03-22T23:32:26.065Z,5.71
2024-03-22T23:33:00.974Z,5.68
2024-03-22T23:33:35.756Z,5.67
2024-03-22T23:34:10.517Z,5.68
2024-03-22T23:34:45.243Z,5.67
2024-03-22T23:35:20.167Z,5.66
2024-03-22T23:35:54.838Z,5.66
2024-03-22T23:36:29.856Z,5.68
2024-03-22T23:37:04.682Z,5.66
2024-03-22T23:37:39.805Z,5.68
2024-03-22T23:38:14.521Z,5.71
2024-03-22T23:38:49.269Z,5.69
2024-03-22T23:39:24.028Z,5.72
2024-03-22T23:39:58.819Z,5.73
2024-03-22T23:40:33.511Z,5.72
2024-03-22T23:41:08.302Z,5.71
2024-03-22T23:41:43.037Z,5.74
2024-03-22T23:42:17.804Z,5.76
2024-03-22T23:42:52.553Z,5.79
2024-03-22T23:43:27.279Z,5.80
2024-03-22T23:44:02.114Z,5.76
2024-03-22T23:44:36.796Z,5.79
2024-03-22T23:45:11.549Z,5.81
2024-03-22T23:45:46.306Z,5.84
2024-03-22T23:46:21.136Z,5.86
2024-03-22T23:46:55.954Z,5.87
2024-03-22T23:47:31.067Z,5.87
2024-03-22T23:48:05.839Z,5.88
2024-03-22T23:48:40.597Z,5.85
2024-03-22T23:49:15.325Z,5.84
2024-03-22T23:49:50.080Z,5.84
2024-03-22T23:50:24.853Z,5.87
2024-03-22T23:50:59.715Z,5.87
2024-03-22T23:51:34.413Z,5.89
2024-03-22T23:52:09.149Z,5.87
2024-03-22T23:52:44.134Z,5.92
2024-03-22T23:53:18.839Z,5.93
2024-03-22T23:53:53.626Z,5.95
2024-03-22T23:54:28.769Z,5.92
2024-03-22T23:55:03.485Z,5.94
2024-03-22T23:55:38.192Z,5.92
2024-03-22T23:56:12.991Z,5.90
2024-03-22T23:56:55.248Z,5.85
2024-03-22T23:57:33.339Z,5.88
2024-03-22T23:58:08.093Z,5.88
2024-03-22T23:58:42.780Z,5.82
2024-03-22T23:59:17.571Z,5.79
2024-03-22T23:59:52.431Z,5.80
